Observation data for Post on 01/17/2019      Previous  Date  Next       Current Mesonet Observations  Soil Data  Daily Summary Page  Observations in Plain Language
KPT1 170600Z 28015G20KT 12/M02 A3006 RMK A01 T01171015  RH  040%=      5-min Rain = 0
KPT1 170605Z 28016KT 12/M02 A3006 RMK A01 T01161015  RH  041%=      5-min Rain = 0
KPT1 170610Z 27015G20KT 12/M01 A3006 RMK A01 T01161014  RH  041%=      5-min Rain = 0
KPT1 170615Z 28014G20KT 11/M01 A3007 RMK A01 T01121014  RH  042%=      5-min Rain = 0
KPT1 170620Z 27015G20KT 11/M02 A3007 RMK A01 T01121015  RH  042%=      5-min Rain = 0
KPT1 170625Z 27015G21KT 11/M02 A3007 RMK A01 T01091015  RH  043%=      5-min Rain = 0
KPT1 170630Z 27015G20KT 11/M02 A3007 RMK A01 T01071015  RH  043%=      5-min Rain = 0
KPT1 170635Z 27016G23KT 11/M02 A3006 RMK A01 T01061015  RH  043%=      5-min Rain = 0
KPT1 170640Z 27016G22KT 11/M02 A3006 RMK A01 T01071015  RH  043%=      5-min Rain = 0
KPT1 170645Z 27016G22KT 11/M02 A3006 RMK A01 T01061015  RH  043%=      5-min Rain = 0
KPT1 170650Z 27017G22KT 11/M02 A3006 RMK A01 T01061015  RH  043%=      5-min Rain = 0
KPT1 170655Z 27016G22KT 11/M01 A3006 RMK A01 T01061014  RH  044%=      5-min Rain = 0
KPT1 170700Z 27016G22KT 11/M01 A3006 RMK A01 T01071014  RH  043%=      5-min Rain = 0
KPT1 170705Z 27015G20KT 11/M01 A3006 RMK A01 T01061014  RH  044%=      5-min Rain = 0
KPT1 170710Z 27015KT 10/M01 A3006 RMK A01 T01031013  RH  045%=      5-min Rain = 0
KPT1 170715Z 27015KT 10/M01 A3006 RMK A01 T01031013  RH  045%=      5-min Rain = 0
KPT1 170720Z 27013KT 10/M01 A3006 RMK A01 T01031013  RH  045%=      5-min Rain = 0
KPT1 170725Z 27015KT 11/M01 A3006 RMK A01 T01061013  RH  044%=      5-min Rain = 0
KPT1 170730Z 27015G20KT 11/M01 A3006 RMK A01 T01081013  RH  043%=      5-min Rain = 0
KPT1 170735Z 27016G21KT 11/M01 A3005 RMK A01 T01121013  RH  042%=      5-min Rain = 0
KPT1 170740Z 27015G20KT 11/M01 A3005 RMK A01 T01111012  RH  043%=      5-min Rain = 0
KPT1 170745Z 27014G20KT 11/M01 A3006 RMK A01 T01091012  RH  043%=      5-min Rain = 0
KPT1 170750Z 27015G20KT 11/M01 A3005 RMK A01 T01101012  RH  043%=      5-min Rain = 0
KPT1 170755Z 27015G21KT 11/M01 A3006 RMK A01 T01101012  RH  043%=      5-min Rain = 0
KPT1 170800Z 27016G23KT 11/M01 A3006 RMK A01 T01111013  RH  043%=      5-min Rain = 0
KPT1 170805Z 27016G22KT 12/M01 A3006 RMK A01 T01161014  RH  041%=      5-min Rain = 0
KPT1 170810Z 28015G20KT 12/M02 A3006 RMK A01 T01171015  RH  040%=      5-min Rain = 0
KPT1 170815Z 28013G19KT 12/M02 A3007 RMK A01 T01161015  RH  041%=      5-min Rain = 0
KPT1 170820Z 28012KT 11/M02 A3007 RMK A01 T01131015  RH  042%=      5-min Rain = 0
KPT1 170825Z 30010G16KT 11/M02 A3008 RMK A01 T01111015  RH  042%=      5-min Rain = 0
KPT1 170830Z 29011KT 11/M01 A3008 RMK A01 T01071014  RH  043%=      5-min Rain = 0
KPT1 170835Z 28012G17KT 11/M01 A3007 RMK A01 T01081014  RH  043%=      5-min Rain = 0
KPT1 170840Z 29013G19KT 11/M02 A3007 RMK A01 T01111015  RH  042%=      5-min Rain = 0
KPT1 170845Z 28012G17KT 11/M02 A3007 RMK A01 T01121016  RH  041%=      5-min Rain = 0
KPT1 170850Z 28012KT 11/M02 A3008 RMK A01 T01131017  RH  041%=      5-min Rain = 0
KPT1 170855Z 29012G18KT 12/M02 A3008 RMK A01 T01151018  RH  040%=      5-min Rain = 0
KPT1 170900Z 28010G15KT 11/M02 A3009 RMK A01 T01141018  RH  040%=      5-min Rain = 0
KPT1 170905Z 28010KT 11/M02 A3009 RMK A01 T01131018  RH  040%=      5-min Rain = 0
KPT1 170910Z 27011KT 11/M02 A3009 RMK A01 T01121018  RH  041%=      5-min Rain = 0
KPT1 170915Z 27013KT 11/M02 A3009 RMK A01 T01141018  RH  040%=      5-min Rain = 0
KPT1 170920Z 27013G18KT 12/M02 A301 RMK A01 T01161018  RH  040%=      5-min Rain = 0
KPT1 170925Z 27012G17KT 12/M02 A301 RMK A01 T01151018  RH  040%=      5-min Rain = 0
KPT1 170930Z 28013G20KT 12/M02 A301 RMK A01 T01161018  RH  040%=      5-min Rain = 0
KPT1 170935Z 28012G19KT 12/M02 A3011 RMK A01 T01161018  RH  040%=      5-min Rain = 0
KPT1 170940Z 28014G22KT 12/M02 A301 RMK A01 T01161019  RH  039%=      5-min Rain = 0
KPT1 170945Z 28012G17KT 12/M02 A3011 RMK A01 T01171019  RH  039%=      5-min Rain = 0
KPT1 170950Z 28014G19KT 12/M02 A3011 RMK A01 T01171019  RH  039%=      5-min Rain = 0
KPT1 170955Z 28012KT 12/M02 A3011 RMK A01 T01161018  RH  040%=      5-min Rain = 0
KPT1 171000Z 28013KT 12/M02 A3011 RMK A01 T01171018  RH  039%=      5-min Rain = 0
KPT1 171005Z 28012KT 12/M02 A3011 RMK A01 T01151018  RH  040%=      5-min Rain = 0
KPT1 171010Z 28013G18KT 12/M02 A3011 RMK A01 T01161018  RH  040%=      5-min Rain = 0
KPT1 171015Z 28014KT 12/M02 A3011 RMK A01 T01151018  RH  040%=      5-min Rain = 0
KPT1 171020Z 28014G21KT 11/M02 A3011 RMK A01 T01141018  RH  040%=      5-min Rain = 0
KPT1 171025Z 28014G23KT 11/M02 A3011 RMK A01 T01131018  RH  040%=      5-min Rain = 0
KPT1 171030Z 27015G21KT 12/M02 A3011 RMK A01 T01151019  RH  040%=      5-min Rain = 0
KPT1 171035Z 27015G20KT 11/M02 A3011 RMK A01 T01141019  RH  040%=      5-min Rain = 0
KPT1 171040Z 27016G21KT 11/M02 A3011 RMK A01 T01141019  RH  040%=      5-min Rain = 0
KPT1 171045Z 27016G21KT 11/M02 A3011 RMK A01 T01141019  RH  040%=      5-min Rain = 0
KPT1 171050Z 27015G20KT 11/M02 A3011 RMK A01 T01131019  RH  040%=      5-min Rain = 0
KPT1 171055Z 27014G21KT 11/M02 A3011 RMK A01 T01131018  RH  040%=      5-min Rain = 0
KPT1 171100Z 27014G20KT 11/M02 A3011 RMK A01 T01121018  RH  041%=      5-min Rain = 0
KPT1 171105Z 28014G20KT 11/M02 A3011 RMK A01 T01121018  RH  041%=      5-min Rain = 0
KPT1 171110Z 27015KT 11/M02 A3011 RMK A01 T01131018  RH  040%=      5-min Rain = 0
KPT1 171115Z 27016KT 11/M02 A3011 RMK A01 T01131018  RH  040%=      5-min Rain = 0
KPT1 171120Z 27015KT 11/M02 A3011 RMK A01 T01131018  RH  040%=      5-min Rain = 0
KPT1 171125Z 28015KT 11/M02 A3011 RMK A01 T01121018  RH  040%=      5-min Rain = 0
KPT1 171130Z 28014KT 11/M02 A3011 RMK A01 T01111018  RH  041%=      5-min Rain = 0
KPT1 171135Z 27014KT 11/M02 A3011 RMK A01 T01121019  RH  041%=      5-min Rain = 0
KPT1 171140Z 27014KT 11/M02 A3011 RMK A01 T01091019  RH  041%=      5-min Rain = 0
KPT1 171145Z 27013KT 11/M02 A3011 RMK A01 T01081019  RH  042%=      5-min Rain = 0
KPT1 171150Z 27013KT 11/M02 A3011 RMK A01 T01061019  RH  042%=      5-min Rain = 0
KPT1 171155Z 28012KT 10/M02 A3011 RMK A01 T01041019  RH  043%=      5-min Rain = 0
KPT1 171200Z 28011G16KT 10/M02 A3012 RMK A01 T01021018  RH  043%=      5-min Rain = 0
KPT1 171205Z 28011G16KT 10/M02 A3012 RMK A01 T01021018  RH  044%=      5-min Rain = 0
KPT1 171210Z 29012G18KT 10/M02 A3012 RMK A01 T01031018  RH  043%=      5-min Rain = 0
KPT1 171215Z 28012G17KT 10/M02 A3013 RMK A01 T01011018  RH  044%=      5-min Rain = 0
KPT1 171220Z 28013G18KT 11/M02 A3013 RMK A01 T01051018  RH  043%=      5-min Rain = 0
KPT1 171225Z 27011G18KT 10/M02 A3013 RMK A01 T01021018  RH  044%=      5-min Rain = 0
KPT1 171230Z 28010G15KT 10/M02 A3013 RMK A01 T00961018  RH  045%=      5-min Rain = 0
KPT1 171235Z 28015G20KT 10/M02 A3013 RMK A01 T00971018  RH  045%=      5-min Rain = 0
KPT1 171240Z 28013G18KT 10/M02 A3013 RMK A01 T00961018  RH  045%=      5-min Rain = 0
KPT1 171245Z 28013G18KT 10/M02 A3013 RMK A01 T01011017  RH  044%=      5-min Rain = 0
KPT1 171250Z 29014G19KT 10/M02 A3013 RMK A01 T01001017  RH  044%=      5-min Rain = 0
KPT1 171255Z 29014KT 10/M02 A3013 RMK A01 T01031017  RH  043%=      5-min Rain = 0
KPT1 171300Z 29015KT 10/M02 A3013 RMK A01 T01031017  RH  044%=      5-min Rain = 0
KPT1 171305Z 29014KT 10/M02 A3014 RMK A01 T01021017  RH  044%=      5-min Rain = 0
KPT1 171310Z 29014KT 10/M02 A3014 RMK A01 T01011017  RH  044%=      5-min Rain = 0
KPT1 171315Z 29014G19KT 10/M02 A3015 RMK A01 T00991017  RH  045%=      5-min Rain = 0
KPT1 171320Z 29015KT 10/M02 A3015 RMK A01 T01001017  RH  044%=      5-min Rain = 0
KPT1 171325Z 29013G20KT 10/M02 A3015 RMK A01 T00971017  RH  045%=      5-min Rain = 0
KPT1 171330Z 30012KT 09/M02 A3016 RMK A01 T00931017  RH  047%=      5-min Rain = 0
KPT1 171335Z 30012KT 09/M02 A3016 RMK A01 T00891017  RH  048%=      5-min Rain = 0
KPT1 171340Z 30011KT 09/M02 A3016 RMK A01 T00851017  RH  049%=      5-min Rain = 0
KPT1 171345Z 30010KT 08/M02 A3016 RMK A01 T00841017  RH  050%=      5-min Rain = 0
KPT1 171350Z 29010KT 08/M02 A3017 RMK A01 T00821017  RH  050%=      5-min Rain = 0
KPT1 171355Z 29011KT 08/M02 A3017 RMK A01 T00811017  RH  051%=      5-min Rain = 0
KPT1 171400Z 30012KT 08/M02 A3017 RMK A01 T00791017  RH  051%=      5-min Rain = 0
KPT1 171405Z 30012KT 08/M02 A3017 RMK A01 T00781017  RH  052%=      5-min Rain = 0
KPT1 171410Z 29012KT 08/M02 A3017 RMK A01 T00791016  RH  052%=      5-min Rain = 0
KPT1 171415Z 30012G17KT 08/M02 A3017 RMK A01 T00811016  RH  051%=      5-min Rain = 0
KPT1 171420Z 30012KT 08/M02 A3017 RMK A01 T00831016  RH  050%=      5-min Rain = 0
KPT1 171425Z 30012KT 09/M02 A3017 RMK A01 T00851015  RH  050%=      5-min Rain = 0
KPT1 171430Z 30012KT 09/M02 A3016 RMK A01 T00881015  RH  049%=      5-min Rain = 0
KPT1 171435Z 30010KT 09/M01 A3016 RMK A01 T00901014  RH  049%=      5-min Rain = 0
KPT1 171440Z 30012KT 09/M01 A3016 RMK A01 T00941014  RH  047%=      5-min Rain = 0
KPT1 171445Z 29012KT 10/M01 A3016 RMK A01 T00971014  RH  046%=      5-min Rain = 0
KPT1 171450Z 30012KT 10/M01 A3017 RMK A01 T01001014  RH  045%=      5-min Rain = 0
KPT1 171455Z 30012KT 10/M01 A3017 RMK A01 T01011014  RH  045%=      5-min Rain = 0
KPT1 171500Z 30011KT 10/M01 A3017 RMK A01 T01041013  RH  044%=      5-min Rain = 0
KPT1 171505Z 30011KT 11/M01 A3017 RMK A01 T01091012  RH  043%=      5-min Rain = 0
KPT1 171510Z 30011G16KT 11/M01 A3018 RMK A01 T01131012  RH  042%=      5-min Rain = 0
KPT1 171515Z 30012KT 12/M01 A3018 RMK A01 T01151012  RH  042%=      5-min Rain = 0
KPT1 171520Z 30012KT 12/M01 A3018 RMK A01 T01181012  RH  041%=      5-min Rain = 0
KPT1 171525Z 31011KT 12/M01 A3018 RMK A01 T01211011  RH  040%=      5-min Rain = 0
KPT1 171530Z 31011KT 13/M01 A3018 RMK A01 T01251012  RH  039%=      5-min Rain = 0
KPT1 171535Z 31011KT 13/M01 A3018 RMK A01 T01261012  RH  039%=      5-min Rain = 0
KPT1 171540Z 31012KT 13/M01 A3018 RMK A01 T01281011  RH  038%=      5-min Rain = 0
KPT1 171545Z 31012G17KT 13/M01 A3018 RMK A01 T01311011  RH  038%=      5-min Rain = 0
KPT1 171550Z 31013KT 13/M01 A3018 RMK A01 T01301012  RH  038%=      5-min Rain = 0
KPT1 171555Z 30011KT 13/M01 A3019 RMK A01 T01331011  RH  037%=      5-min Rain = 0
KPT1 171600Z 30010KT 14/M01 A3019 RMK A01 T01381010  RH  037%=      5-min Rain = 0
KPT1 171605Z 30010KT 14/M01 A3019 RMK A01 T01391011  RH  036%=      5-min Rain = 0
KPT1 171610Z 30009KT 14/M01 A302 RMK A01 T01441010  RH  035%=      5-min Rain = 0
KPT1 171615Z 30011KT 14/M01 A302 RMK A01 T01441012  RH  035%=      5-min Rain = 0
KPT1 171620Z 30010KT 15/M01 A302 RMK A01 T01471011  RH  034%=      5-min Rain = 0
KPT1 171625Z 31010KT 15/M01 A302 RMK A01 T01491011  RH  034%=      5-min Rain = 0
KPT1 171630Z 31010KT 15/M01 A3019 RMK A01 T01511010  RH  033%=      5-min Rain = 0
KPT1 171635Z 31010KT 15/M01 A302 RMK A01 T01531010  RH  033%=      5-min Rain = 0
KPT1 171640Z 32010KT 16/M01 A302 RMK A01 T01551010  RH  033%=      5-min Rain = 0
KPT1 171645Z 32009KT 16/M01 A302 RMK A01 T01551011  RH  032%=      5-min Rain = 0
KPT1 171650Z 31008KT 16/M01 A302 RMK A01 T01591009  RH  032%=      5-min Rain = 0
KPT1 171655Z 33006KT 16/M01 A3021 RMK A01 T01611009  RH  032%=      5-min Rain = 0
KPT1 171700Z 34005KT 16/M01 A3021 RMK A01 T01631009  RH  031%=      5-min Rain = 0
KPT1 171705Z 34004KT 16/M01 A3021 RMK A01 T01631011  RH  031%=      5-min Rain = 0
KPT1 171710Z 34004KT 16/M01 A3021 RMK A01 T01641010  RH  031%=      5-min Rain = 0
KPT1 171715Z 01004KT 16/M01 A3021 RMK A01 T01641013  RH  030%=      5-min Rain = 0
KPT1 171720Z 34002KT 17/M01 A3021 RMK A01 T01671010  RH  030%=      5-min Rain = 0
KPT1 171725Z 34002KT 17/M01 A302 RMK A01 T01691011  RH  030%=      5-min Rain = 0
KPT1 171730Z 34004KT 17/M01 A302 RMK A01 T01671013  RH  030%=      5-min Rain = 0
KPT1 171735Z 01003KT 17/M01 A302 RMK A01 T01701012  RH  029%=      5-min Rain = 0
KPT1 171740Z 05003KT 17/M01 A302 RMK A01 T01701013  RH  029%=      5-min Rain = 0
KPT1 171745Z 36004KT 17/M01 A3019 RMK A01 T01711014  RH  029%=      5-min Rain = 0
KPT1 171750Z 04003KT 17/M02 A3019 RMK A01 T01721015  RH  028%=      5-min Rain = 0
KPT1 171755Z 12002KT 17/M02 A3019 RMK A01 T01711016  RH  028%=      5-min Rain = 0
KPT1 171800Z 09002KT 17/M02 A3018 RMK A01 T01711017  RH  028%=      5-min Rain = 0
KPT1 171805Z 10003KT 17/M02 A3018 RMK A01 T01721019  RH  027%=      5-min Rain = 0
KPT1 171810Z 10003KT 17/M02 A3018 RMK A01 T01711019  RH  028%=      5-min Rain = 0
KPT1 171815Z 18001KT 17/M02 A3018 RMK A01 T01741019  RH  027%=      5-min Rain = 0
KPT1 171820Z 13002KT 18/M02 A3018 RMK A01 T01831016  RH  026%=      5-min Rain = 0
KPT1 171825Z 12003KT 18/M02 A3018 RMK A01 T01831016  RH  026%=      5-min Rain = 0
KPT1 171830Z 08002KT 18/M02 A3018 RMK A01 T01811017  RH  026%=      5-min Rain = 0
KPT1 171835Z 33002KT 18/M02 A3017 RMK A01 T01811018  RH  026%=      5-min Rain = 0
KPT1 171840Z 07001KT 18/M02 A3016 RMK A01 T01841017  RH  026%=      5-min Rain = 0
KPT1 171845Z 13003KT 19/M02 A3016 RMK A01 T01881019  RH  025%=      5-min Rain = 0
KPT1 171850Z 06001KT 19/M02 A3016 RMK A01 T01921019  RH  024%=      5-min Rain = 0
KPT1 171855Z 08003KT 19/M02 A3015 RMK A01 T01911020  RH  024%=      5-min Rain = 0
KPT1 171900Z 01002KT 19/M02 A3015 RMK A01 T01901023  RH  024%=      5-min Rain = 0
KPT1 171905Z 29001KT 19/M02 A3015 RMK A01 T01931023  RH  023%=      5-min Rain = 0
KPT1 171910Z 01003KT 19/M02 A3014 RMK A01 T01931023  RH  023%=      5-min Rain = 0
KPT1 171915Z 00002KT 19/M02 A3014 RMK A01 T01921023  RH  024%=      5-min Rain = 0
KPT1 171920Z 01003KT 19/M03 A3014 RMK A01 T01941025  RH  023%=      5-min Rain = 0
KPT1 171925Z 01002KT 19/M03 A3014 RMK A01 T01941029  RH  022%=      5-min Rain = 0
KPT1 171930Z 01002KT 19/M03 A3013 RMK A01 T01941033  RH  022%=      5-min Rain = 0
KPT1 171935Z 12003KT 20/M03 A3013 RMK A01 T01981033  RH  021%=      5-min Rain = 0
KPT1 171940Z 15003KT 20/M04 A3013 RMK A01 T02031035  RH  020%=      5-min Rain = 0
KPT1 171945Z 09003KT 20/M03 A3012 RMK A01 T02031034  RH  020%=      5-min Rain = 0
KPT1 171950Z 05003KT 20/M04 A3012 RMK A01 T01961036  RH  021%=      5-min Rain = 0
KPT1 171955Z 04002KT 20/M04 A3012 RMK A01 T02001039  RH  020%=      5-min Rain = 0
KPT1 172000Z 06003KT 20/M04 A3011 RMK A01 T02031043  RH  019%=      5-min Rain = 0
KPT1 172005Z 07004KT 21/M05 A3011 RMK A01 T02061051  RH  018%=      5-min Rain = 0
KPT1 172010Z 08003KT 20/M06 A3011 RMK A01 T02031059  RH  017%=      5-min Rain = 0
KPT1 172015Z 07003KT 20/M05 A3011 RMK A01 T02031049  RH  018%=      5-min Rain = 0
KPT1 172020Z 04003KT 20/M04 A301 RMK A01 T02021041  RH  019%=      5-min Rain = 0
KPT1 172025Z 05003KT 20/M04 A301 RMK A01 T02021039  RH  020%=      5-min Rain = 0
KPT1 172030Z 09003KT 21/M04 A301 RMK A01 T02051040  RH  019%=      5-min Rain = 0
KPT1 172035Z 16004KT 21/M05 A301 RMK A01 T02061045  RH  018%=      5-min Rain = 0
KPT1 172040Z 17003KT 20/M05 A301 RMK A01 T02001047  RH  019%=      5-min Rain = 0
KPT1 172045Z 18005KT 20/M05 A301 RMK A01 T02001046  RH  019%=      5-min Rain = 0
KPT1 172050Z 18002KT 20/M05 A3009 RMK A01 T02021047  RH  018%=      5-min Rain = 0
KPT1 172055Z 17004KT 20/M05 A3009 RMK A01 T02041045  RH  018%=      5-min Rain = 0
KPT1 172100Z 17005KT 20/M05 A3009 RMK A01 T02041045  RH  019%=      5-min Rain = 0
KPT1 172105Z 15004KT 21/M05 A3009 RMK A01 T02071045  RH  018%=      5-min Rain = 0
KPT1 172110Z 14004KT 21/M05 A3009 RMK A01 T02051047  RH  018%=      5-min Rain = 0
KPT1 172115Z 13005KT 20/M04 A3009 RMK A01 T02041044  RH  019%=      5-min Rain = 0
KPT1 172120Z 15005KT 20/M04 A3009 RMK A01 T02041043  RH  019%=      5-min Rain = 0
KPT1 172125Z 13004KT 20/M04 A3009 RMK A01 T02031042  RH  019%=      5-min Rain = 0
KPT1 172130Z 15007KT 20/M04 A3009 RMK A01 T02011036  RH  020%=      5-min Rain = 0
KPT1 172135Z 14006KT 20/M03 A3009 RMK A01 T02021033  RH  021%=      5-min Rain = 0
KPT1 172140Z 14006KT 20/M03 A3009 RMK A01 T02011034  RH  021%=      5-min Rain = 0
KPT1 172145Z 13005KT 20/M03 A3009 RMK A01 T02021033  RH  020%=      5-min Rain = 0
KPT1 172150Z 14006KT 20/M03 A3009 RMK A01 T02011033  RH  021%=      5-min Rain = 0
KPT1 172155Z 14006KT 20/M04 A3009 RMK A01 T02021035  RH  020%=      5-min Rain = 0
KPT1 172200Z 14008KT 20/M03 A3009 RMK A01 T02001034  RH  021%=      5-min Rain = 0
KPT1 172205Z 13007KT 20/M03 A3009 RMK A01 T01981033  RH  021%=      5-min Rain = 0
KPT1 172210Z 13007KT 20/M03 A3009 RMK A01 T01961033  RH  021%=      5-min Rain = 0
KPT1 172215Z 14006KT 20/M03 A3009 RMK A01 T01971033  RH  021%=      5-min Rain = 0
KPT1 172220Z 13006KT 20/M03 A3009 RMK A01 T01961031  RH  022%=      5-min Rain = 0
KPT1 172225Z 13007KT 20/M03 A3009 RMK A01 T01951033  RH  021%=      5-min Rain = 0
KPT1 172230Z 13007KT 19/M03 A3009 RMK A01 T01941032  RH  022%=      5-min Rain = 0
KPT1 172235Z 13008KT 19/M03 A3009 RMK A01 T01921034  RH  022%=      5-min Rain = 0
KPT1 172240Z 13006KT 19/M03 A3009 RMK A01 T01901031  RH  022%=      5-min Rain = 0
KPT1 172245Z 15005KT 19/M03 A3009 RMK A01 T01921029  RH  023%=      5-min Rain = 0
KPT1 172250Z 16007KT 19/M03 A3008 RMK A01 T01911033  RH  022%=      5-min Rain = 0
KPT1 172255Z 15007KT 19/M03 A3008 RMK A01 T01911030  RH  023%=      5-min Rain = 0
KPT1 172300Z 15005KT 19/M03 A3008 RMK A01 T01901025  RH  023%=      5-min Rain = 0
KPT1 172305Z 15005KT 19/M02 A3008 RMK A01 T01881024  RH  024%=      5-min Rain = 0
KPT1 172310Z 16005KT 19/M02 A3008 RMK A01 T01851022  RH  025%=      5-min Rain = 0
KPT1 172315Z 16005KT 18/M02 A3008 RMK A01 T01841021  RH  025%=      5-min Rain = 0
KPT1 172320Z 16006KT 18/M02 A3008 RMK A01 T01841022  RH  025%=      5-min Rain = 0
KPT1 172325Z 16005KT 19/M02 A3008 RMK A01 T01861022  RH  025%=      5-min Rain = 0
KPT1 172330Z 17005KT 18/M02 A3008 RMK A01 T01841020  RH  025%=      5-min Rain = 0
KPT1 172335Z 17005KT 18/M02 A3008 RMK A01 T01821019  RH  026%=      5-min Rain = 0
KPT1 172340Z 17004KT 18/M02 A3008 RMK A01 T01811018  RH  026%=      5-min Rain = 0
KPT1 172345Z 17004KT 18/M02 A3008 RMK A01 T01781017  RH  027%=      5-min Rain = 0
KPT1 172350Z 17004KT 17/M02 A3007 RMK A01 T01741016  RH  028%=      5-min Rain = 0
KPT1 172355Z 16004KT 17/M02 A3007 RMK A01 T01691016  RH  029%=      5-min Rain = 0
KPT1 180000Z 16004KT 17/M02 A3007 RMK A01 T01651016  RH  029%=      5-min Rain = 0
KPT1 180005Z 16005KT 16/M02 A3007 RMK A01 T01621015  RH  030%=      5-min Rain = 0
KPT1 180010Z 16006KT 16/M02 A3007 RMK A01 T01591015  RH  031%=      5-min Rain = 0
KPT1 180015Z 16006KT 16/M02 A3007 RMK A01 T01551015  RH  031%=      5-min Rain = 0
KPT1 180020Z 17006KT 15/M01 A3007 RMK A01 T01521014  RH  032%=      5-min Rain = 0
KPT1 180025Z 17006KT 15/M02 A3007 RMK A01 T01501015  RH  033%=      5-min Rain = 0
KPT1 180030Z 18006KT 15/M02 A3007 RMK A01 T01471015  RH  033%=      5-min Rain = 0
KPT1 180035Z 18006KT 15/M01 A3007 RMK A01 T01471014  RH  033%=      5-min Rain = 0
KPT1 180040Z 18006KT 15/M02 A3007 RMK A01 T01481015  RH  033%=      5-min Rain = 0
KPT1 180045Z 18006KT 15/M01 A3007 RMK A01 T01471014  RH  033%=      5-min Rain = 0
KPT1 180050Z 17006KT 15/M01 A3007 RMK A01 T01471014  RH  033%=      5-min Rain = 0
KPT1 180055Z 17006KT 14/M02 A3007 RMK A01 T01441015  RH  034%=      5-min Rain = 0
KPT1 180100Z 17006KT 14/M02 A3007 RMK A01 T01411015  RH  035%=      5-min Rain = 0
KPT1 180105Z 17006KT 14/M02 A3007 RMK A01 T01381015  RH  035%=      5-min Rain = 0
KPT1 180110Z 17006KT 14/M02 A3007 RMK A01 T01361015  RH  036%=      5-min Rain = 0
KPT1 180115Z 18005KT 14/M02 A3006 RMK A01 T01351015  RH  036%=      5-min Rain = 0
KPT1 180120Z 18005KT 14/M02 A3006 RMK A01 T01351015  RH  036%=      5-min Rain = 0
KPT1 180125Z 19005KT 13/M02 A3006 RMK A01 T01341015  RH  036%=      5-min Rain = 0
KPT1 180130Z 19005KT 14/M01 A3006 RMK A01 T01361014  RH  036%=      5-min Rain = 0
KPT1 180135Z 18005KT 14/M01 A3006 RMK A01 T01351014  RH  036%=      5-min Rain = 0
KPT1 180140Z 18004KT 13/M01 A3006 RMK A01 T01321014  RH  037%=      5-min Rain = 0
KPT1 180145Z 18004KT 13/M01 A3006 RMK A01 T01281014  RH  038%=      5-min Rain = 0
KPT1 180150Z 18005KT 12/M01 A3007 RMK A01 T01231013  RH  039%=      5-min Rain = 0
KPT1 180155Z 17006KT 12/M01 A3007 RMK A01 T01191013  RH  040%=      5-min Rain = 0
KPT1 180200Z 17006KT 12/M01 A3007 RMK A01 T01171014  RH  041%=      5-min Rain = 0
KPT1 180205Z 17007KT 12/M01 A3007 RMK A01 T01151013  RH  042%=      5-min Rain = 0
KPT1 180210Z 17007KT 12/M01 A3007 RMK A01 T01151012  RH  042%=      5-min Rain = 0
KPT1 180215Z 17006KT 12/M01 A3006 RMK A01 T01151012  RH  042%=      5-min Rain = 0
KPT1 180220Z 18006KT 11/M01 A3006 RMK A01 T01141011  RH  042%=      5-min Rain = 0
KPT1 180225Z 18005KT 11/M01 A3006 RMK A01 T01131010  RH  043%=      5-min Rain = 0
KPT1 180230Z 19004KT 12/M01 A3006 RMK A01 T01151011  RH  042%=      5-min Rain = 0
KPT1 180235Z 19003KT 12/M01 A3007 RMK A01 T01171011  RH  042%=      5-min Rain = 0
KPT1 180240Z 20002KT 12/M01 A3007 RMK A01 T01191010  RH  041%=      5-min Rain = 0
KPT1 180245Z 21003KT 12/M01 A3007 RMK A01 T01211010  RH  041%=      5-min Rain = 0
KPT1 180250Z 20003KT 12/M01 A3007 RMK A01 T01161010  RH  042%=      5-min Rain = 0
KPT1 180255Z 20005KT 11/M01 A3007 RMK A01 T01131009  RH  043%=      5-min Rain = 0
KPT1 180300Z 20007KT 11/M01 A3006 RMK A01 T01111006  RH  045%=      5-min Rain = 0
KPT1 180305Z 19009KT 12/00 A3006 RMK A01 T01180001  RH  045%=      5-min Rain = 0
KPT1 180310Z 19009KT 12/00 A3005 RMK A01 T01240001  RH  043%=      5-min Rain = 0
KPT1 180315Z 19009KT 13/00 A3005 RMK A01 T012600-0  RH  042%=      5-min Rain = 0
KPT1 180320Z 19008KT 13/00 A3005 RMK A01 T012500-0  RH  043%=      5-min Rain = 0
KPT1 180325Z 19007KT 12/M00 A3005 RMK A01 T01221001  RH  043%=      5-min Rain = 0
KPT1 180330Z 18007KT 12/00 A3005 RMK A01 T01200000  RH  044%=      5-min Rain = 0
KPT1 180335Z 18007KT 12/00 A3005 RMK A01 T01180000  RH  045%=      5-min Rain = 0
KPT1 180340Z 18006KT 11/00 A3004 RMK A01 T01130000  RH  046%=      5-min Rain = 0
KPT1 180345Z 17005KT 11/00 A3004 RMK A01 T01100000  RH  047%=      5-min Rain = 0
KPT1 180350Z 17006KT 11/00 A3004 RMK A01 T01070001  RH  048%=      5-min Rain = 0
KPT1 180355Z 17006KT 10/00 A3004 RMK A01 T01030001  RH  050%=      5-min Rain = 0
KPT1 180400Z 17006KT 10/00 A3004 RMK A01 T01010002  RH  051%=      5-min Rain = 0
KPT1 180405Z 17005KT 10/00 A3004 RMK A01 T01000002  RH  051%=      5-min Rain = 0
KPT1 180410Z 17004KT 10/00 A3004 RMK A01 T00990002  RH  052%=      5-min Rain = 0
KPT1 180415Z 17003KT 10/00 A3004 RMK A01 T00980002  RH  052%=      5-min Rain = 0
KPT1 180420Z 16001KT 10/00 A3004 RMK A01 T00970002  RH  052%=      5-min Rain = 0
KPT1 180425Z 17002KT 09/00 A3004 RMK A01 T00930002  RH  054%=      5-min Rain = 0
KPT1 180430Z 19002KT 10/00 A3004 RMK A01 T00950003  RH  053%=      5-min Rain = 0
KPT1 180435Z 19003KT 10/00 A3004 RMK A01 T01000003  RH  052%=      5-min Rain = 0
KPT1 180440Z 18003KT 10/00 A3004 RMK A01 T01000003  RH  051%=      5-min Rain = 0
KPT1 180445Z 18003KT 10/00 A3004 RMK A01 T00990003  RH  052%=      5-min Rain = 0
KPT1 180450Z 20002KT 09/00 A3004 RMK A01 T00930003  RH  054%=      5-min Rain = 0
KPT1 180455Z 24002KT 09/00 A3004 RMK A01 T00900003  RH  055%=      5-min Rain = 0
KPT1 180500Z 25002KT 09/00 A3003 RMK A01 T00900003  RH  055%=      5-min Rain = 0
KPT1 180505Z 22002KT 09/00 A3003 RMK A01 T00940003  RH  053%=      5-min Rain = 0
KPT1 180510Z 21004KT 09/00 A3003 RMK A01 T00940002  RH  053%=      5-min Rain = 0
KPT1 180515Z 20006KT 09/00 A3003 RMK A01 T008600-0  RH  055%=      5-min Rain = 0
KPT1 180520Z 22005KT 09/00 A3003 RMK A01 T008600-0  RH  055%=      5-min Rain = 0
KPT1 180525Z 23004KT 09/00 A3003 RMK A01 T00900001  RH  054%=      5-min Rain = 0
KPT1 180530Z 24004KT 09/00 A3003 RMK A01 T00900000  RH  054%=      5-min Rain = 0
KPT1 180535Z 26004KT 08/M00 A3003 RMK A01 T00831002  RH  056%=      5-min Rain = 0
KPT1 180540Z 26004KT 07/M00 A3003 RMK A01 T00711004  RH  060%=      5-min Rain = 0
KPT1 180545Z 24004KT 07/M00 A3003 RMK A01 T00681002  RH  061%=      5-min Rain = 0
KPT1 180550Z 23004KT 07/M00 A3003 RMK A01 T00731002  RH  059%=      5-min Rain = 0
KPT1 180555Z 22005KT 07/M00 A3003 RMK A01 T00731001  RH  060%=      5-min Rain = 0

Page generated in 0.0583 seconds.